createdAt,value
2018-07-19T00:02:20.919Z,10.60
2018-07-19T00:04:52.315Z,13.80
2018-07-19T00:07:24.201Z,11.20
2018-07-19T00:09:55.647Z,11.60
2018-07-19T00:12:27.529Z,12.40
2018-07-19T00:14:59.367Z,11.60
2018-07-19T00:17:32.691Z,14.00
2018-07-19T00:20:04.375Z,15.60
2018-07-19T00:22:36.219Z,14.60
2018-07-19T00:25:07.798Z,13.60
2018-07-19T00:27:39.812Z,11.00
2018-07-19T00:30:11.609Z,14.00
2018-07-19T00:32:43.140Z,12.00
2018-07-19T00:35:14.876Z,12.20
2018-07-19T00:37:47.696Z,14.60
2018-07-19T00:40:19.417Z,10.40
2018-07-19T00:42:51.188Z,12.00
2018-07-19T00:45:23.186Z,14.40
2018-07-19T00:47:55.188Z,15.80
2018-07-19T00:50:26.835Z,12.80
2018-07-19T00:52:58.508Z,13.40
2018-07-19T00:55:30.183Z,16.00
2018-07-19T00:58:01.775Z,14.80
2018-07-19T01:00:33.548Z,13.20
2018-07-19T01:03:05.636Z,14.60
2018-07-19T01:05:37.381Z,12.00
2018-07-19T01:08:09.234Z,13.00
2018-07-19T01:10:40.944Z,14.80
2018-07-19T01:13:12.577Z,10.60
2018-07-19T01:15:44.227Z,9.80
2018-07-19T01:18:15.758Z,12.20
2018-07-19T01:20:47.509Z,12.40
2018-07-19T01:23:19.140Z,12.60
2018-07-19T01:25:50.855Z,17.60
2018-07-19T01:28:22.633Z,13.60
2018-07-19T01:30:54.606Z,15.80
2018-07-19T01:33:26.206Z,17.60
2018-07-19T01:35:57.889Z,22.60
2018-07-19T01:38:30.113Z,15.80
2018-07-19T01:41:05.952Z,18.00
2018-07-19T01:43:37.712Z,21.40
2018-07-19T01:46:09.538Z,17.80
2018-07-19T01:48:41.293Z,19.20
2018-07-19T01:51:13.012Z,19.20
2018-07-19T01:53:44.971Z,20.20
2018-07-19T01:56:16.665Z,23.20
2018-07-19T01:58:48.226Z,26.40
2018-07-19T02:01:19.936Z,24.80
2018-07-19T02:03:51.819Z,27.60
2018-07-19T02:06:23.483Z,27.20
2018-07-19T02:08:55.288Z,31.00
2018-07-19T02:11:26.865Z,35.60
2018-07-19T02:13:58.872Z,34.00
2018-07-19T02:16:30.459Z,33.40
2018-07-19T02:19:02.381Z,33.20
2018-07-19T02:21:33.919Z,38.60
2018-07-19T02:24:05.895Z,35.80
2018-07-19T02:26:37.303Z,36.20
2018-07-19T02:29:09.444Z,34.20
2018-07-19T02:31:41.130Z,34.20
2018-07-19T02:34:12.834Z,33.20
2018-07-19T02:36:44.591Z,32.60
2018-07-19T02:39:17.288Z,35.40
2018-07-19T02:41:49.106Z,34.80
2018-07-19T02:44:21.027Z,32.60
2018-07-19T02:46:52.804Z,33.60
2018-07-19T02:49:24.513Z,34.20
2018-07-19T02:51:56.318Z,32.80
2018-07-19T02:54:28.197Z,35.40
2018-07-19T02:56:59.868Z,36.20
2018-07-19T02:59:31.663Z,34.00
2018-07-19T03:02:03.365Z,37.20
2018-07-19T03:04:35.200Z,36.80
2018-07-19T03:07:06.885Z,37.60
2018-07-19T03:09:38.789Z,34.60
2018-07-19T03:12:10.323Z,35.80
2018-07-19T03:14:42.314Z,37.80
2018-07-19T03:17:13.930Z,34.00
2018-07-19T03:19:45.695Z,34.60
2018-07-19T03:22:17.208Z,34.40
2018-07-19T03:24:49.195Z,36.00
2018-07-19T03:27:20.979Z,37.20
2018-07-19T03:29:52.764Z,37.00
2018-07-19T03:32:24.438Z,41.80
2018-07-19T03:34:56.244Z,44.40
2018-07-19T03:37:27.944Z,44.00
2018-07-19T03:40:00.842Z,40.40
2018-07-19T03:42:32.756Z,41.80
2018-07-19T03:45:05.330Z,39.40
2018-07-19T03:47:37.078Z,34.20
2018-07-19T03:50:09.144Z,31.80
2018-07-19T03:52:41.065Z,34.00
2018-07-19T03:55:12.861Z,33.80
2018-07-19T03:57:44.704Z,35.20
2018-07-19T04:00:16.688Z,30.40
2018-07-19T04:02:48.144Z,33.60
2018-07-19T04:05:20.210Z,32.20
2018-07-19T04:07:51.972Z,35.00
2018-07-19T04:10:24.396Z,30.40
2018-07-19T04:12:56.078Z,34.00
2018-07-19T04:15:28.727Z,34.00
2018-07-19T04:18:00.376Z,32.60
2018-07-19T04:20:33.169Z,33.60
2018-07-19T04:23:04.960Z,34.80
2018-07-19T04:25:36.990Z,35.60
2018-07-19T04:28:08.426Z,35.60
2018-07-19T04:30:40.227Z,40.40
2018-07-19T04:33:11.757Z,38.00
2018-07-19T04:35:43.605Z,39.60
2018-07-19T04:38:15.510Z,34.80
2018-07-19T04:40:47.695Z,33.80
2018-07-19T04:43:19.480Z,36.20
2018-07-19T04:45:51.295Z,33.40
2018-07-19T04:48:22.913Z,31.00
2018-07-19T04:50:54.813Z,32.20
2018-07-19T04:53:26.669Z,31.80
2018-07-19T04:55:58.435Z,35.20
2018-07-19T04:58:29.903Z,34.40
2018-07-19T05:01:01.841Z,33.20
2018-07-19T05:03:33.680Z,18.00
2018-07-19T05:06:05.584Z,24.60
2018-07-19T05:08:37.690Z,28.00
2018-07-19T05:11:09.676Z,34.00
2018-07-19T05:13:41.545Z,31.40
2018-07-19T05:16:13.155Z,35.00
2018-07-19T05:18:44.765Z,34.60
2018-07-19T05:21:16.713Z,36.00
2018-07-19T05:23:48.438Z,35.40
2018-07-19T05:26:20.176Z,33.80
2018-07-19T05:28:52.059Z,36.60
2018-07-19T05:31:23.730Z,37.80
2018-07-19T05:33:55.459Z,35.00
2018-07-19T05:36:27.034Z,37.80
2018-07-19T05:38:58.900Z,43.40
2018-07-19T05:41:30.974Z,44.80
2018-07-19T05:44:02.978Z,44.80
2018-07-19T05:46:34.937Z,41.40
2018-07-19T05:49:06.990Z,40.40
2018-07-19T05:51:38.578Z,41.00
2018-07-19T05:54:10.439Z,38.80
2018-07-19T05:56:42.445Z,36.40
2018-07-19T05:59:14.035Z,38.00
2018-07-19T06:01:45.862Z,36.60
2018-07-19T06:04:17.572Z,38.40
2018-07-19T06:06:49.749Z,38.80
2018-07-19T06:09:21.586Z,35.40
2018-07-19T06:11:53.228Z,39.40
2018-07-19T06:14:25.053Z,35.20
2018-07-19T06:16:57.185Z,43.00
2018-07-19T06:19:29.311Z,39.20
2018-07-19T06:22:01.136Z,39.80
2018-07-19T06:24:32.876Z,41.40
2018-07-19T06:27:10.111Z,44.20
2018-07-19T06:29:41.871Z,43.80
2018-07-19T06:32:14.660Z,41.00
2018-07-19T06:34:46.564Z,42.00
2018-07-19T06:37:18.485Z,35.80
2018-07-19T06:39:50.193Z,35.40
2018-07-19T06:42:22.048Z,30.60
2018-07-19T06:44:53.973Z,24.60
2018-07-19T06:47:25.914Z,26.80
2018-07-19T06:49:57.510Z,25.00
2018-07-19T06:52:29.166Z,21.00
2018-07-19T06:55:01.072Z,21.40
2018-07-19T06:57:33.142Z,20.00
2018-07-19T07:00:05.053Z,16.00
2018-07-19T07:02:37.094Z,16.80
2018-07-19T07:05:08.755Z,17.00
2018-07-19T07:07:41.976Z,18.00
2018-07-19T07:10:13.776Z,18.60
2018-07-19T07:12:45.722Z,17.40
2018-07-19T07:15:16.857Z,13.20
2018-07-19T07:17:48.264Z,18.40
2018-07-19T07:20:20.162Z,17.00
2018-07-19T07:22:52.304Z,18.80
2018-07-19T07:25:24.011Z,21.20
2018-07-19T07:27:55.868Z,18.60
2018-07-19T07:30:28.004Z,19.40
2018-07-19T07:33:00.063Z,19.40
2018-07-19T07:35:31.761Z,21.40
2018-07-19T07:38:04.159Z,23.20
2018-07-19T07:40:35.997Z,26.00
2018-07-19T07:43:09.988Z,23.60
2018-07-19T07:45:42.700Z,24.20
2018-07-19T07:48:14.448Z,22.20
2018-07-19T07:50:46.535Z,24.40
2018-07-19T07:53:18.350Z,25.20
2018-07-19T07:55:50.195Z,21.60
2018-07-19T07:58:22.464Z,25.40
2018-07-19T08:00:54.324Z,27.40
2018-07-19T08:03:26.568Z,28.80
2018-07-19T08:05:58.306Z,31.80
2018-07-19T08:08:30.629Z,32.80
2018-07-19T08:11:02.493Z,30.20
2018-07-19T08:13:34.348Z,31.20
2018-07-19T08:16:06.263Z,30.00
2018-07-19T08:18:38.309Z,29.40
2018-07-19T08:21:10.116Z,30.40
2018-07-19T08:23:41.998Z,30.20
2018-07-19T08:26:13.628Z,30.20
2018-07-19T08:28:45.560Z,29.60
2018-07-19T08:31:17.640Z,31.40
2018-07-19T08:33:49.955Z,26.60
2018-07-19T08:36:22.371Z,29.20
2018-07-19T08:38:54.032Z,28.40
2018-07-19T08:41:25.838Z,30.40
2018-07-19T08:43:57.635Z,31.60
2018-07-19T08:46:29.763Z,31.20
2018-07-19T08:49:01.605Z,31.40
2018-07-19T08:51:33.590Z,35.00
2018-07-19T08:54:05.771Z,31.60
2018-07-19T08:56:37.412Z,32.00
2018-07-19T08:59:09.728Z,33.40
2018-07-19T09:01:42.057Z,32.80
2018-07-19T09:04:13.852Z,33.00
2018-07-19T09:06:45.711Z,32.00
2018-07-19T09:09:18.135Z,30.60
2018-07-19T09:11:49.988Z,33.80
2018-07-19T09:14:21.981Z,31.00
2018-07-19T09:16:54.035Z,29.00
2018-07-19T09:19:26.149Z,28.40
2018-07-19T09:21:57.902Z,25.00
2018-07-19T09:24:29.800Z,22.20
2018-07-19T09:27:01.506Z,20.00
2018-07-19T09:29:33.475Z,26.60
2018-07-19T09:32:06.933Z,29.40
2018-07-19T09:34:39.376Z,32.20
2018-07-19T09:37:12.195Z,30.60
2018-07-19T09:39:44.206Z,31.60
2018-07-19T09:42:15.944Z,32.80
2018-07-19T09:44:47.734Z,32.00
2018-07-19T09:47:19.565Z,29.60
2018-07-19T09:49:52.094Z,28.60
2018-07-19T09:52:24.195Z,26.40
2018-07-19T09:55:02.206Z,27.40
2018-07-19T09:57:33.692Z,30.00
2018-07-19T10:00:06.048Z,26.40
2018-07-19T10:02:37.912Z,28.40
2018-07-19T10:05:09.993Z,23.80
2018-07-19T10:07:42.035Z,29.00
2018-07-19T10:10:13.848Z,25.60
2018-07-19T10:12:46.250Z,25.00
2018-07-19T10:15:18.163Z,24.00
2018-07-19T10:17:50.698Z,26.20
2018-07-19T10:20:22.764Z,27.40
2018-07-19T10:22:54.489Z,24.00
2018-07-19T10:25:26.438Z,21.00
2018-07-19T10:27:58.547Z,21.00
2018-07-19T10:30:30.447Z,18.40
2018-07-19T10:33:03.531Z,18.00
2018-07-19T10:35:37.494Z,19.60
2018-07-19T10:38:10.570Z,19.00
2018-07-19T10:40:42.631Z,20.60
2018-07-19T10:43:14.529Z,16.00
2018-07-19T10:45:46.530Z,17.60
2018-07-19T10:48:18.435Z,17.20
2018-07-19T10:50:50.467Z,16.00
2018-07-19T10:53:22.360Z,17.00
2018-07-19T10:55:54.525Z,17.00
2018-07-19T10:58:26.502Z,19.00
2018-07-19T11:00:58.443Z,19.40
2018-07-19T11:03:30.118Z,19.00
2018-07-19T11:06:01.887Z,18.60
2018-07-19T11:08:33.751Z,22.20
2018-07-19T11:11:05.399Z,24.80
2018-07-19T11:13:37.559Z,22.80
2018-07-19T11:16:09.551Z,23.40
2018-07-19T11:18:41.456Z,24.00
2018-07-19T11:21:13.505Z,22.80
2018-07-19T11:23:45.294Z,24.20
2018-07-19T11:26:17.128Z,26.80
2018-07-19T11:28:48.790Z,28.00
2018-07-19T11:31:20.892Z,30.60
2018-07-19T11:33:52.676Z,30.00
2018-07-19T11:36:24.599Z,32.60
2018-07-19T11:38:56.821Z,33.20
2018-07-19T11:41:28.930Z,32.00
2018-07-19T11:44:00.600Z,26.60
2018-07-19T11:46:32.425Z,26.40
2018-07-19T11:49:13.019Z,24.20
2018-07-19T11:51:44.707Z,25.20
2018-07-19T11:54:16.306Z,21.60
2018-07-19T11:56:48.264Z,23.80
2018-07-19T11:59:20.163Z,21.40
2018-07-19T12:01:51.747Z,20.00
2018-07-19T12:04:23.597Z,19.20
2018-07-19T12:06:55.457Z,20.60
2018-07-19T12:09:27.052Z,24.00
2018-07-19T12:11:58.954Z,20.80
2018-07-19T12:14:30.520Z,19.80
2018-07-19T12:17:02.278Z,18.00
2018-07-19T12:19:33.997Z,17.40
2018-07-19T12:22:05.805Z,17.80
2018-07-19T12:24:37.558Z,15.00
2018-07-19T12:27:09.378Z,12.80
2018-07-19T12:29:41.099Z,12.80
2018-07-19T12:32:13.049Z,15.80
2018-07-19T12:34:44.814Z,11.40
2018-07-19T12:37:16.649Z,13.80
2018-07-19T12:39:48.730Z,12.20
2018-07-19T12:42:20.442Z,12.00
2018-07-19T12:44:52.196Z,9.80
2018-07-19T12:47:24.108Z,8.40
2018-07-19T12:49:55.838Z,12.00
2018-07-19T12:52:27.637Z,13.00
2018-07-19T12:54:59.524Z,12.20
2018-07-19T12:57:31.110Z,15.00
2018-07-19T13:00:02.836Z,11.80
2018-07-19T13:02:35.318Z,13.00
2018-07-19T13:05:07.351Z,19.20
2018-07-19T13:07:39.480Z,15.40
2018-07-19T13:10:11.341Z,16.80
2018-07-19T13:12:43.194Z,15.80
2018-07-19T13:15:15.006Z,21.00
2018-07-19T13:17:46.933Z,16.00
2018-07-19T13:20:18.573Z,25.00
2018-07-19T13:22:50.512Z,25.60
2018-07-19T13:25:22.205Z,30.00
2018-07-19T13:27:54.191Z,27.00
2018-07-19T13:30:26.296Z,27.40
2018-07-19T13:32:57.864Z,28.80
2018-07-19T13:35:29.773Z,24.80
2018-07-19T13:38:01.485Z,31.20
2018-07-19T13:40:33.252Z,26.40
2018-07-19T13:43:05.463Z,29.20
2018-07-19T13:45:37.680Z,31.40
2018-07-19T13:48:09.230Z,31.20
2018-07-19T13:50:40.889Z,29.00
2018-07-19T13:53:33.572Z,34.60
2018-07-19T13:56:07.228Z,36.40
2018-07-19T13:58:39.699Z,32.40
2018-07-19T14:01:11.373Z,34.80
2018-07-19T14:03:43.160Z,35.80
2018-07-19T14:06:14.778Z,38.00
2018-07-19T14:08:48.082Z,36.40
2018-07-19T14:11:19.974Z,37.80
2018-07-19T14:13:51.780Z,36.20
2018-07-19T14:16:23.458Z,31.20
2018-07-19T14:18:55.427Z,33.00
2018-07-19T14:21:26.730Z,32.40
2018-07-19T14:23:58.114Z,33.40
2018-07-19T14:26:29.347Z,34.40
2018-07-19T14:29:01.303Z,30.80
2018-07-19T14:31:33.056Z,37.60
2018-07-19T14:34:05.082Z,34.60
2018-07-19T14:36:37.141Z,35.40
2018-07-19T14:39:14.317Z,35.20
2018-07-19T14:41:46.169Z,34.00
2018-07-19T14:44:18.107Z,36.20
2018-07-19T14:46:49.689Z,32.20
2018-07-19T14:49:21.297Z,31.60
2018-07-19T14:51:52.928Z,32.20
2018-07-19T14:54:24.454Z,34.00
2018-07-19T14:56:56.231Z,30.40
2018-07-19T14:59:27.989Z,28.40
2018-07-19T15:01:59.792Z,28.20
2018-07-19T15:04:31.691Z,26.60
2018-07-19T15:07:03.582Z,30.60
2018-07-19T15:09:36.121Z,34.60
2018-07-19T15:12:08.297Z,30.40
2018-07-19T15:14:40.380Z,30.00
2018-07-19T15:17:12.246Z,31.00
2018-07-19T15:19:44.152Z,32.20
2018-07-19T15:22:16.254Z,32.20
2018-07-19T15:24:47.751Z,31.60
2018-07-19T15:27:19.618Z,32.60
2018-07-19T15:29:51.790Z,31.00
2018-07-19T15:32:23.624Z,24.60
2018-07-19T15:34:55.427Z,25.80
2018-07-19T15:37:27.447Z,30.00
2018-07-19T15:39:59.405Z,23.20
2018-07-19T15:42:31.296Z,26.00
2018-07-19T15:45:02.849Z,25.60
2018-07-19T15:47:34.788Z,24.00
2018-07-19T15:50:06.893Z,27.60
2018-07-19T15:52:38.499Z,28.00
2018-07-19T15:55:10.357Z,30.40
2018-07-19T15:57:42.031Z,29.00
2018-07-19T16:00:13.905Z,23.00
2018-07-19T16:02:45.861Z,24.00
2018-07-19T16:05:17.785Z,27.60
2018-07-19T16:07:49.679Z,25.80
2018-07-19T16:10:23.201Z,30.00
2018-07-19T16:12:55.206Z,22.60
2018-07-19T16:15:26.825Z,18.20
2018-07-19T16:17:58.697Z,19.20
2018-07-19T16:20:30.576Z,19.00
2018-07-19T16:23:02.266Z,19.00
2018-07-19T16:25:34.024Z,20.60
2018-07-19T16:28:05.512Z,18.00
2018-07-19T16:30:37.348Z,21.00
2018-07-19T16:33:08.827Z,21.20
2018-07-19T16:35:40.665Z,16.80
2018-07-19T16:38:12.201Z,20.00
2018-07-19T16:40:44.254Z,13.40
2018-07-19T16:43:15.877Z,16.20
2018-07-19T16:45:48.169Z,15.00
2018-07-19T16:48:19.777Z,15.40
2018-07-19T16:50:51.816Z,16.40
2018-07-19T16:53:23.530Z,17.20
2018-07-19T16:55:55.198Z,16.20
2018-07-19T16:58:26.821Z,17.60
2018-07-19T17:00:58.601Z,17.40
2018-07-19T17:03:30.288Z,17.60
2018-07-19T17:06:02.485Z,17.40
2018-07-19T17:08:34.258Z,17.40
2018-07-19T17:11:07.788Z,18.00
2018-07-19T17:13:39.563Z,12.40
2018-07-19T17:16:11.930Z,16.40
2018-07-19T17:18:44.062Z,18.40
2018-07-19T17:21:16.009Z,17.60
2018-07-19T17:23:48.099Z,15.00
2018-07-19T17:26:19.999Z,16.60
2018-07-19T17:28:51.662Z,15.80
2018-07-19T17:31:23.979Z,17.00
2018-07-19T17:33:55.863Z,15.40
2018-07-19T17:36:27.751Z,14.60
2018-07-19T17:38:59.371Z,16.40
2018-07-19T17:41:31.577Z,14.00
2018-07-19T17:44:03.061Z,13.00
2018-07-19T17:46:35.245Z,16.80
2018-07-19T17:49:07.560Z,14.80
2018-07-19T17:51:39.363Z,14.80
2018-07-19T17:54:10.016Z,15.00
2018-07-19T17:56:42.292Z,14.00
2018-07-19T17:59:14.165Z,13.20
2018-07-19T18:01:46.173Z,14.00
2018-07-19T18:04:18.123Z,10.00
2018-07-19T18:06:49.858Z,12.40
2018-07-19T18:09:21.310Z,12.00
2018-07-19T18:11:54.241Z,10.20
2018-07-19T18:14:26.060Z,11.40
2018-07-19T18:16:57.935Z,12.00
2018-07-19T18:19:29.799Z,13.20
2018-07-19T18:22:01.663Z,8.20
2018-07-19T18:24:33.489Z,10.80
2018-07-19T18:27:05.107Z,12.00
2018-07-19T18:29:36.856Z,12.00
2018-07-19T18:32:08.649Z,13.40
2018-07-19T18:34:40.651Z,12.20
2018-07-19T18:37:12.352Z,13.00
2018-07-19T18:39:43.940Z,11.40
2018-07-19T18:42:15.642Z,13.40
2018-07-19T18:44:47.412Z,13.40
2018-07-19T18:47:19.256Z,13.40
2018-07-19T18:49:51.053Z,12.40
2018-07-19T18:52:22.884Z,13.60
2018-07-19T18:54:54.565Z,14.20
2018-07-19T18:57:26.403Z,11.00
2018-07-19T18:59:57.876Z,12.60
2018-07-19T19:02:29.710Z,16.00
2018-07-19T19:05:01.331Z,15.40
2018-07-19T19:07:33.259Z,15.00
2018-07-19T19:10:05.210Z,16.20
2018-07-19T19:12:37.383Z,18.40
2018-07-19T19:15:10.033Z,16.00
2018-07-19T19:17:41.790Z,15.00
2018-07-19T19:20:13.649Z,12.00
2018-07-19T19:22:45.482Z,13.20
2018-07-19T19:25:17.007Z,14.60
2018-07-19T19:27:48.715Z,13.00
2018-07-19T19:30:20.436Z,20.20
2018-07-19T19:32:52.247Z,20.60
2018-07-19T19:35:24.134Z,17.40
2018-07-19T19:37:55.694Z,15.80
2018-07-19T19:40:27.310Z,18.80
2018-07-19T19:42:59.085Z,18.80
2018-07-19T19:45:30.918Z,19.20
2018-07-19T19:48:03.570Z,17.20
2018-07-19T19:50:35.371Z,21.40
2018-07-19T19:53:07.273Z,20.40
2018-07-19T19:55:38.882Z,15.60
2018-07-19T19:58:10.777Z,25.40
2018-07-19T20:00:42.401Z,24.60
2018-07-19T20:03:14.345Z,17.40
2018-07-19T20:05:45.827Z,18.80
2018-07-19T20:08:17.578Z,18.40
2018-07-19T20:10:49.347Z,19.80
2018-07-19T20:13:22.294Z,23.40
2018-07-19T20:15:54.493Z,22.80
2018-07-19T20:18:26.126Z,18.40
2018-07-19T20:20:57.873Z,20.80
2018-07-19T20:23:30.092Z,20.80
2018-07-19T20:26:01.823Z,21.20
2018-07-19T20:28:33.577Z,22.80
2018-07-19T20:31:05.330Z,22.00
2018-07-19T20:33:37.263Z,21.20
2018-07-19T20:36:09.077Z,21.60
2018-07-19T20:38:40.892Z,16.40
2018-07-19T20:41:12.595Z,21.00
2018-07-19T20:43:44.356Z,23.20
2018-07-19T20:46:16.121Z,24.20
2018-07-19T20:48:47.889Z,20.80
2018-07-19T20:51:19.414Z,28.20
2018-07-19T20:53:51.170Z,24.80
2018-07-19T20:56:22.935Z,27.60
2018-07-19T20:58:54.787Z,24.20
2018-07-19T21:01:26.406Z,24.00
2018-07-19T21:03:58.236Z,22.00
2018-07-19T21:06:29.987Z,21.40
2018-07-19T21:09:01.845Z,23.00
2018-07-19T21:11:33.642Z,17.40
2018-07-19T21:14:06.361Z,20.00
2018-07-19T21:16:37.935Z,19.00
2018-07-19T21:19:09.670Z,19.40
2018-07-19T21:21:41.310Z,19.20
2018-07-19T21:24:13.188Z,21.60
2018-07-19T21:26:44.829Z,17.20
2018-07-19T21:29:16.678Z,22.40
2018-07-19T21:31:48.367Z,20.20
2018-07-19T21:34:20.187Z,21.20
2018-07-19T21:36:51.870Z,26.80
2018-07-19T21:39:23.801Z,20.80
2018-07-19T21:41:55.668Z,21.80
2018-07-19T21:44:27.463Z,18.40
2018-07-19T21:46:59.122Z,25.00
2018-07-19T21:49:30.926Z,20.60
2018-07-19T21:52:02.584Z,19.20
2018-07-19T21:54:34.416Z,23.20
2018-07-19T21:57:06.518Z,27.40
2018-07-19T21:59:38.532Z,26.00
2018-07-19T22:02:10.594Z,25.80
2018-07-19T22:04:42.387Z,20.80
2018-07-19T22:07:14.195Z,24.60
2018-07-19T22:09:46.011Z,30.40
2018-07-19T22:12:17.666Z,32.60
2018-07-19T22:14:49.933Z,32.60
2018-07-19T22:17:21.850Z,33.00
2018-07-19T22:19:53.725Z,33.00
2018-07-19T22:22:25.453Z,34.60
2018-07-19T22:24:57.296Z,28.40
2018-07-19T22:27:29.131Z,31.40
2018-07-19T22:30:00.826Z,29.60
2018-07-19T22:32:32.596Z,31.60
2018-07-19T22:35:04.664Z,27.80
2018-07-19T22:37:36.339Z,26.00
2018-07-19T22:40:08.187Z,24.80
2018-07-19T22:42:39.617Z,27.40
2018-07-19T22:45:11.428Z,27.80
2018-07-19T22:47:42.989Z,28.20
2018-07-19T22:50:14.744Z,27.60
2018-07-19T22:52:46.282Z,26.00
2018-07-19T22:55:18.114Z,23.80
2018-07-19T22:57:49.702Z,26.80
2018-07-19T23:00:21.465Z,24.80
2018-07-19T23:02:53.080Z,26.20
2018-07-19T23:05:24.936Z,30.40
2018-07-19T23:07:56.560Z,25.80
2018-07-19T23:10:28.375Z,28.00
2018-07-19T23:13:00.076Z,29.60
2018-07-19T23:15:33.342Z,27.60
2018-07-19T23:18:05.102Z,28.80
2018-07-19T23:20:36.973Z,31.00
2018-07-19T23:23:09.053Z,28.00
2018-07-19T23:25:40.729Z,31.40
2018-07-19T23:28:12.812Z,30.40
2018-07-19T23:30:45.359Z,31.40
2018-07-19T23:33:17.366Z,28.40
2018-07-19T23:35:56.162Z,28.40
2018-07-19T23:38:38.244Z,24.40
2018-07-19T23:41:15.912Z,25.80
2018-07-19T23:43:51.607Z,27.40
2018-07-19T23:46:28.691Z,25.80
2018-07-19T23:49:04.992Z,20.80
2018-07-19T23:51:38.633Z,16.00
2018-07-19T23:54:10.464Z,13.40
2018-07-19T23:56:42.800Z,11.40
2018-07-19T23:59:14.360Z,12.80
